Silverstone, United Kingdom
Current Conditions -  °F | °C
As of 1:50 PM on Thursday 30 Oct 2014 (Local Time) from EGTC Reporting Station
Broken Clouds Broken Clouds  
Wind Chill: 17°   Ceiling: 2700
Heat Index: 17°   Visibility: 6mi
Dew Point: 16°   Wind: 13mph
Humidity: 94%   Direction: 210°SSW
Pressure: 30.03"   Gusts: NA
Location:  52.09°N, 1.03°W
Report Text: EGTC 301350Z 21011KT 9999 BKN027 17/16 Q1017
Loading
Personal Weather Stations






























Interactive Weather Map
Tropical Storm Tracking
New forecast layout! Learn more

10-Day Weather Forecast

Advertisements
Track Severe Weather on mobile